sensor_id;sensor_type;location;lat;lon;timestamp;P1;durP1;ratioP1;P2;durP2;ratioP2
41643;SDS011;44236;48.098;11.582;2023-02-28T00:00:20;3.30;;;0.98;;
41643;SDS011;44236;48.098;11.582;2023-02-28T00:02:46;1.63;;;0.90;;
41643;SDS011;44236;48.098;11.582;2023-02-28T00:05:14;2.50;;;0.98;;
41643;SDS011;44236;48.098;11.582;2023-02-28T00:07:41;2.05;;;0.90;;
41643;SDS011;44236;48.098;11.582;2023-02-28T00:10:08;2.30;;;1.10;;
41643;SDS011;44236;48.098;11.582;2023-02-28T00:12:36;3.13;;;1.23;;
41643;SDS011;44236;48.098;11.582;2023-02-28T00:15:05;2.38;;;0.95;;
41643;SDS011;44236;48.098;11.582;2023-02-28T00:17:31;2.92;;;1.17;;
41643;SDS011;44236;48.098;11.582;2023-02-28T00:19:57;2.60;;;1.05;;
41643;SDS011;44236;48.098;11.582;2023-02-28T00:22:34;3.17;;;1.20;;
41643;SDS011;44236;48.098;11.582;2023-02-28T00:25:01;1.92;;;1.00;;
41643;SDS011;44236;48.098;11.582;2023-02-28T00:27:27;2.38;;;1.00;;
41643;SDS011;44236;48.098;11.582;2023-02-28T00:29:52;1.73;;;0.90;;
41643;SDS011;44236;48.098;11.582;2023-02-28T00:32:19;1.98;;;0.88;;
41643;SDS011;44236;48.098;11.582;2023-02-28T00:34:44;3.97;;;1.52;;
41643;SDS011;44236;48.098;11.582;2023-02-28T00:37:10;2.63;;;1.20;;
41643;SDS011;44236;48.098;11.582;2023-02-28T00:39:37;2.72;;;1.10;;
41643;SDS011;44236;48.098;11.582;2023-02-28T00:42:03;1.85;;;0.98;;
41643;SDS011;44236;48.098;11.582;2023-02-28T00:44:30;1.75;;;1.00;;
41643;SDS011;44236;48.098;11.582;2023-02-28T00:46:56;2.20;;;1.65;;
41643;SDS011;44236;48.098;11.582;2023-02-28T00:49:22;1.83;;;1.05;;
41643;SDS011;44236;48.098;11.582;2023-02-28T00:51:48;4.28;;;1.30;;
41643;SDS011;44236;48.098;11.582;2023-02-28T00:54:14;3.03;;;1.30;;
41643;SDS011;44236;48.098;11.582;2023-02-28T00:56:41;2.95;;;1.10;;
41643;SDS011;44236;48.098;11.582;2023-02-28T00:59:06;2.03;;;1.10;;
41643;SDS011;44236;48.098;11.582;2023-02-28T01:01:32;1.67;;;1.17;;
41643;SDS011;44236;48.098;11.582;2023-02-28T01:03:58;1.95;;;0.95;;
41643;SDS011;44236;48.098;11.582;2023-02-28T01:06:24;1.80;;;1.00;;
41643;SDS011;44236;48.098;11.582;2023-02-28T01:08:49;2.45;;;1.15;;
41643;SDS011;44236;48.098;11.582;2023-02-28T01:11:18;3.03;;;1.30;;
41643;SDS011;44236;48.098;11.582;2023-02-28T01:13:44;1.20;;;0.80;;
41643;SDS011;44236;48.098;11.582;2023-02-28T01:16:11;1.35;;;0.80;;
41643;SDS011;44236;48.098;11.582;2023-02-28T01:18:38;2.63;;;1.23;;
41643;SDS011;44236;48.098;11.582;2023-02-28T01:21:04;2.15;;;1.00;;
41643;SDS011;44236;48.098;11.582;2023-02-28T01:23:31;1.83;;;0.93;;
41643;SDS011;44236;48.098;11.582;2023-02-28T01:25:57;2.17;;;1.20;;
41643;SDS011;44236;48.098;11.582;2023-02-28T01:28:32;2.35;;;1.02;;
41643;SDS011;44236;48.098;11.582;2023-02-28T01:31:01;3.35;;;1.23;;
41643;SDS011;44236;48.098;11.582;2023-02-28T01:33:27;1.58;;;0.93;;
41643;SDS011;44236;48.098;11.582;2023-02-28T01:36:03;2.38;;;1.10;;
41643;SDS011;44236;48.098;11.582;2023-02-28T01:38:31;2.22;;;1.10;;
41643;SDS011;44236;48.098;11.582;2023-02-28T01:40:57;2.17;;;1.10;;
41643;SDS011;44236;48.098;11.582;2023-02-28T01:43:24;1.27;;;0.70;;
41643;SDS011;44236;48.098;11.582;2023-02-28T01:45:50;1.90;;;0.90;;
41643;SDS011;44236;48.098;11.582;2023-02-28T01:48:17;1.80;;;1.08;;
41643;SDS011;44236;48.098;11.582;2023-02-28T01:50:45;2.03;;;0.90;;
41643;SDS011;44236;48.098;11.582;2023-02-28T01:53:16;1.60;;;0.90;;
41643;SDS011;44236;48.098;11.582;2023-02-28T01:55:47;5.07;;;0.90;;
41643;SDS011;44236;48.098;11.582;2023-02-28T01:58:15;2.15;;;1.00;;
41643;SDS011;44236;48.098;11.582;2023-02-28T02:00:41;4.25;;;1.60;;
41643;SDS011;44236;48.098;11.582;2023-02-28T02:03:11;3.28;;;1.55;;
41643;SDS011;44236;48.098;11.582;2023-02-28T02:05:39;1.95;;;1.00;;
41643;SDS011;44236;48.098;11.582;2023-02-28T02:08:10;2.88;;;1.10;;
41643;SDS011;44236;48.098;11.582;2023-02-28T02:16:13;1.63;;;0.90;;
41643;SDS011;44236;48.098;11.582;2023-02-28T02:19:09;2.05;;;1.25;;
41643;SDS011;44236;48.098;11.582;2023-02-28T02:25:07;3.05;;;1.25;;
41643;SDS011;44236;48.098;11.582;2023-02-28T02:39:36;2.17;;;0.90;;
41643;SDS011;44236;48.098;11.582;2023-02-28T02:42:11;1.98;;;1.08;;
41643;SDS011;44236;48.098;11.582;2023-02-28T02:44:46;4.25;;;0.95;;
41643;SDS011;44236;48.098;11.582;2023-02-28T02:47:17;2.70;;;1.00;;
41643;SDS011;44236;48.098;11.582;2023-02-28T02:49:47;2.55;;;1.20;;
41643;SDS011;44236;48.098;11.582;2023-02-28T02:52:17;0.68;;;0.65;;
41643;SDS011;44236;48.098;11.582;2023-02-28T02:54:46;2.72;;;1.23;;
41643;SDS011;44236;48.098;11.582;2023-02-28T02:57:17;1.90;;;1.00;;
41643;SDS011;44236;48.098;11.582;2023-02-28T02:59:48;2.95;;;1.38;;
41643;SDS011;44236;48.098;11.582;2023-02-28T03:02:15;1.52;;;0.88;;
41643;SDS011;44236;48.098;11.582;2023-02-28T03:04:47;3.97;;;1.15;;
41643;SDS011;44236;48.098;11.582;2023-02-28T03:07:17;1.85;;;1.30;;
41643;SDS011;44236;48.098;11.582;2023-02-28T03:09:50;2.03;;;1.20;;
41643;SDS011;44236;48.098;11.582;2023-02-28T03:12:17;2.35;;;1.10;;
41643;SDS011;44236;48.098;11.582;2023-02-28T03:17:49;2.17;;;1.08;;
41643;SDS011;44236;48.098;11.582;2023-02-28T03:20:27;3.60;;;1.15;;
41643;SDS011;44236;48.098;11.582;2023-02-28T03:28:35;2.20;;;1.05;;
41643;SDS011;44236;48.098;11.582;2023-02-28T03:31:14;1.77;;;1.00;;
41643;SDS011;44236;48.098;11.582;2023-02-28T03:33:50;1.27;;;1.00;;
41643;SDS011;44236;48.098;11.582;2023-02-28T03:36:22;2.67;;;1.45;;
41643;SDS011;44236;48.098;11.582;2023-02-28T03:38:59;1.70;;;0.90;;
41643;SDS011;44236;48.098;11.582;2023-02-28T03:44:36;2.88;;;1.30;;
41643;SDS011;44236;48.098;11.582;2023-02-28T03:47:07;3.22;;;1.35;;
41643;SDS011;44236;48.098;11.582;2023-02-28T03:49:54;2.30;;;1.55;;
41643;SDS011;44236;48.098;11.582;2023-02-28T03:52:31;1.58;;;1.00;;
41643;SDS011;44236;48.098;11.582;2023-02-28T03:55:06;2.38;;;1.15;;
41643;SDS011;44236;48.098;11.582;2023-02-28T04:00:55;2.00;;;0.90;;
41643;SDS011;44236;48.098;11.582;2023-02-28T04:03:21;3.05;;;1.50;;
41643;SDS011;44236;48.098;11.582;2023-02-28T04:05:54;2.03;;;1.05;;
41643;SDS011;44236;48.098;11.582;2023-02-28T04:08:21;1.95;;;1.25;;
41643;SDS011;44236;48.098;11.582;2023-02-28T04:10:50;2.53;;;1.13;;
41643;SDS011;44236;48.098;11.582;2023-02-28T04:13:28;2.53;;;1.40;;
41643;SDS011;44236;48.098;11.582;2023-02-28T04:15:53;2.83;;;1.30;;
41643;SDS011;44236;48.098;11.582;2023-02-28T04:18:19;2.03;;;1.20;;
41643;SDS011;44236;48.098;11.582;2023-02-28T04:20:44;2.55;;;1.30;;
41643;SDS011;44236;48.098;11.582;2023-02-28T04:23:10;3.65;;;1.13;;
41643;SDS011;44236;48.098;11.582;2023-02-28T04:25:35;1.88;;;1.00;;
41643;SDS011;44236;48.098;11.582;2023-02-28T04:28:01;2.65;;;1.10;;
41643;SDS011;44236;48.098;11.582;2023-02-28T04:30:26;3.92;;;1.20;;
41643;SDS011;44236;48.098;11.582;2023-02-28T04:32:52;3.28;;;1.17;;
41643;SDS011;44236;48.098;11.582;2023-02-28T04:35:18;7.15;;;1.50;;
41643;SDS011;44236;48.098;11.582;2023-02-28T04:37:43;2.72;;;1.27;;
41643;SDS011;44236;48.098;11.582;2023-02-28T04:40:09;2.50;;;1.20;;
41643;SDS011;44236;48.098;11.582;2023-02-28T04:42:35;3.72;;;1.42;;
41643;SDS011;44236;48.098;11.582;2023-02-28T04:45:01;2.15;;;1.30;;
41643;SDS011;44236;48.098;11.582;2023-02-28T04:47:28;2.60;;;1.20;;
41643;SDS011;44236;48.098;11.582;2023-02-28T04:49:54;2.08;;;1.23;;
41643;SDS011;44236;48.098;11.582;2023-02-28T04:52:20;2.65;;;1.30;;
41643;SDS011;44236;48.098;11.582;2023-02-28T04:54:45;4.25;;;1.30;;
41643;SDS011;44236;48.098;11.582;2023-02-28T04:57:11;1.90;;;1.08;;
41643;SDS011;44236;48.098;11.582;2023-02-28T04:59:37;2.15;;;1.10;;
41643;SDS011;44236;48.098;11.582;2023-02-28T05:02:02;2.58;;;1.30;;
41643;SDS011;44236;48.098;11.582;2023-02-28T05:04:31;2.83;;;1.40;;
41643;SDS011;44236;48.098;11.582;2023-02-28T05:06:59;3.13;;;1.20;;
41643;SDS011;44236;48.098;11.582;2023-02-28T05:09:25;2.92;;;1.13;;
41643;SDS011;44236;48.098;11.582;2023-02-28T05:11:51;2.78;;;1.33;;
41643;SDS011;44236;48.098;11.582;2023-02-28T05:14:17;2.55;;;1.17;;
41643;SDS011;44236;48.098;11.582;2023-02-28T05:16:42;3.25;;;1.30;;
41643;SDS011;44236;48.098;11.582;2023-02-28T05:19:08;1.90;;;1.02;;
41643;SDS011;44236;48.098;11.582;2023-02-28T05:21:41;2.53;;;1.25;;
41643;SDS011;44236;48.098;11.582;2023-02-28T05:24:13;2.67;;;1.30;;
41643;SDS011;44236;48.098;11.582;2023-02-28T05:26:40;2.33;;;1.33;;
41643;SDS011;44236;48.098;11.582;2023-02-28T05:29:08;2.42;;;1.10;;
41643;SDS011;44236;48.098;11.582;2023-02-28T05:31:34;3.50;;;1.33;;
41643;SDS011;44236;48.098;11.582;2023-02-28T05:34:00;3.17;;;1.40;;
41643;SDS011;44236;48.098;11.582;2023-02-28T05:36:26;2.55;;;1.40;;
41643;SDS011;44236;48.098;11.582;2023-02-28T05:38:52;3.28;;;1.42;;
41643;SDS011;44236;48.098;11.582;2023-02-28T05:41:18;3.17;;;1.60;;
41643;SDS011;44236;48.098;11.582;2023-02-28T05:43:45;3.75;;;2.15;;
41643;SDS011;44236;48.098;11.582;2023-02-28T05:46:11;3.05;;;1.42;;
41643;SDS011;44236;48.098;11.582;2023-02-28T05:48:38;2.83;;;1.55;;
41643;SDS011;44236;48.098;11.582;2023-02-28T05:51:05;5.32;;;1.77;;
41643;SDS011;44236;48.098;11.582;2023-02-28T05:53:32;4.10;;;1.83;;
41643;SDS011;44236;48.098;11.582;2023-02-28T05:55:58;3.85;;;1.70;;
41643;SDS011;44236;48.098;11.582;2023-02-28T05:58:24;4.30;;;1.92;;
41643;SDS011;44236;48.098;11.582;2023-02-28T06:00:59;6.72;;;2.80;;
41643;SDS011;44236;48.098;11.582;2023-02-28T06:03:26;3.65;;;1.70;;
41643;SDS011;44236;48.098;11.582;2023-02-28T06:05:52;3.38;;;1.70;;
41643;SDS011;44236;48.098;11.582;2023-02-28T06:08:18;4.22;;;2.08;;
41643;SDS011;44236;48.098;11.582;2023-02-28T06:10:44;4.57;;;1.85;;
41643;SDS011;44236;48.098;11.582;2023-02-28T06:13:10;5.10;;;2.30;;
41643;SDS011;44236;48.098;11.582;2023-02-28T06:15:37;4.70;;;1.80;;
41643;SDS011;44236;48.098;11.582;2023-02-28T06:18:03;5.55;;;2.78;;
41643;SDS011;44236;48.098;11.582;2023-02-28T06:20:30;10.00;;;4.32;;
41643;SDS011;44236;48.098;11.582;2023-02-28T06:22:56;9.18;;;5.53;;
41643;SDS011;44236;48.098;11.582;2023-02-28T06:25:23;10.93;;;4.97;;
41643;SDS011;44236;48.098;11.582;2023-02-28T06:27:50;11.63;;;4.43;;
41643;SDS011;44236;48.098;11.582;2023-02-28T06:30:16;5.78;;;3.65;;
41643;SDS011;44236;48.098;11.582;2023-02-28T06:32:42;10.50;;;4.03;;
41643;SDS011;44236;48.098;11.582;2023-02-28T06:35:08;7.90;;;3.15;;
41643;SDS011;44236;48.098;11.582;2023-02-28T06:37:34;6.28;;;3.20;;
41643;SDS011;44236;48.098;11.582;2023-02-28T06:39:59;7.50;;;4.03;;
41643;SDS011;44236;48.098;11.582;2023-02-28T06:42:25;6.80;;;3.00;;
41643;SDS011;44236;48.098;11.582;2023-02-28T06:44:53;6.35;;;2.83;;
41643;SDS011;44236;48.098;11.582;2023-02-28T06:47:22;7.28;;;3.30;;
41643;SDS011;44236;48.098;11.582;2023-02-28T06:49:48;7.97;;;3.35;;
41643;SDS011;44236;48.098;11.582;2023-02-28T06:52:15;7.97;;;3.10;;
41643;SDS011;44236;48.098;11.582;2023-02-28T06:54:40;7.35;;;3.17;;
41643;SDS011;44236;48.098;11.582;2023-02-28T06:57:06;6.93;;;2.75;;
41643;SDS011;44236;48.098;11.582;2023-02-28T06:59:32;5.95;;;2.28;;
41643;SDS011;44236;48.098;11.582;2023-02-28T07:01:58;8.10;;;3.08;;
41643;SDS011;44236;48.098;11.582;2023-02-28T07:04:24;4.90;;;2.55;;
41643;SDS011;44236;48.098;11.582;2023-02-28T07:06:49;7.25;;;3.28;;
41643;SDS011;44236;48.098;11.582;2023-02-28T07:09:15;5.45;;;2.88;;
41643;SDS011;44236;48.098;11.582;2023-02-28T07:11:41;6.18;;;2.92;;
41643;SDS011;44236;48.098;11.582;2023-02-28T07:14:07;5.60;;;3.00;;
41643;SDS011;44236;48.098;11.582;2023-02-28T07:16:34;8.63;;;2.85;;
41643;SDS011;44236;48.098;11.582;2023-02-28T07:19:00;12.05;;;3.22;;
41643;SDS011;44236;48.098;11.582;2023-02-28T07:21:26;8.57;;;3.08;;
41643;SDS011;44236;48.098;11.582;2023-02-28T07:23:52;8.35;;;3.40;;
41643;SDS011;44236;48.098;11.582;2023-02-28T07:26:18;6.25;;;2.85;;
41643;SDS011;44236;48.098;11.582;2023-02-28T07:28:45;9.10;;;3.13;;
41643;SDS011;44236;48.098;11.582;2023-02-28T07:31:12;8.13;;;4.15;;
41643;SDS011;44236;48.098;11.582;2023-02-28T07:33:41;9.30;;;3.42;;
41643;SDS011;44236;48.098;11.582;2023-02-28T07:36:08;6.80;;;3.70;;
41643;SDS011;44236;48.098;11.582;2023-02-28T07:38:40;5.97;;;3.33;;
41643;SDS011;44236;48.098;11.582;2023-02-28T07:41:07;5.30;;;3.30;;
41643;SDS011;44236;48.098;11.582;2023-02-28T07:43:34;47.10;;;5.68;;
41643;SDS011;44236;48.098;11.582;2023-02-28T07:46:07;7.15;;;3.40;;
41643;SDS011;44236;48.098;11.582;2023-02-28T07:48:34;10.88;;;3.92;;
41643;SDS011;44236;48.098;11.582;2023-02-28T07:51:00;6.15;;;2.70;;
41643;SDS011;44236;48.098;11.582;2023-02-28T07:53:26;9.77;;;3.50;;
41643;SDS011;44236;48.098;11.582;2023-02-28T07:55:56;11.18;;;2.95;;
41643;SDS011;44236;48.098;11.582;2023-02-28T07:58:23;7.88;;;3.42;;
41643;SDS011;44236;48.098;11.582;2023-02-28T08:00:49;8.63;;;3.38;;
41643;SDS011;44236;48.098;11.582;2023-02-28T08:03:16;12.75;;;4.60;;
41643;SDS011;44236;48.098;11.582;2023-02-28T08:05:45;9.27;;;3.25;;
41643;SDS011;44236;48.098;11.582;2023-02-28T08:08:13;7.45;;;2.83;;
41643;SDS011;44236;48.098;11.582;2023-02-28T08:10:39;8.32;;;2.90;;
41643;SDS011;44236;48.098;11.582;2023-02-28T08:13:05;9.80;;;2.80;;
41643;SDS011;44236;48.098;11.582;2023-02-28T08:15:31;7.07;;;3.78;;
41643;SDS011;44236;48.098;11.582;2023-02-28T08:17:56;7.50;;;2.58;;
41643;SDS011;44236;48.098;11.582;2023-02-28T08:20:23;5.63;;;2.90;;
41643;SDS011;44236;48.098;11.582;2023-02-28T08:22:49;9.63;;;3.03;;
41643;SDS011;44236;48.098;11.582;2023-02-28T08:25:15;8.32;;;2.95;;
41643;SDS011;44236;48.098;11.582;2023-02-28T08:27:41;5.60;;;2.65;;
41643;SDS011;44236;48.098;11.582;2023-02-28T08:30:07;7.97;;;3.70;;
41643;SDS011;44236;48.098;11.582;2023-02-28T08:32:35;7.15;;;2.50;;
41643;SDS011;44236;48.098;11.582;2023-02-28T08:35:01;7.97;;;2.90;;
41643;SDS011;44236;48.098;11.582;2023-02-28T08:37:28;6.53;;;2.78;;
41643;SDS011;44236;48.098;11.582;2023-02-28T08:39:53;7.65;;;2.63;;
41643;SDS011;44236;48.098;11.582;2023-02-28T08:42:19;6.38;;;2.70;;
41643;SDS011;44236;48.098;11.582;2023-02-28T08:44:45;6.57;;;2.88;;
41643;SDS011;44236;48.098;11.582;2023-02-28T08:47:10;6.80;;;3.00;;
41643;SDS011;44236;48.098;11.582;2023-02-28T08:49:36;5.65;;;3.03;;
41643;SDS011;44236;48.098;11.582;2023-02-28T08:52:02;6.22;;;2.90;;
41643;SDS011;44236;48.098;11.582;2023-02-28T08:54:28;4.93;;;2.63;;
41643;SDS011;44236;48.098;11.582;2023-02-28T08:56:56;7.93;;;3.22;;
41643;SDS011;44236;48.098;11.582;2023-02-28T08:59:22;5.55;;;2.50;;
41643;SDS011;44236;48.098;11.582;2023-02-28T09:01:48;8.02;;;3.08;;
41643;SDS011;44236;48.098;11.582;2023-02-28T09:04:13;9.15;;;3.17;;
41643;SDS011;44236;48.098;11.582;2023-02-28T09:06:39;7.07;;;3.65;;
41643;SDS011;44236;48.098;11.582;2023-02-28T09:09:05;5.55;;;2.67;;
41643;SDS011;44236;48.098;11.582;2023-02-28T09:11:32;9.13;;;3.33;;
41643;SDS011;44236;48.098;11.582;2023-02-28T09:13:59;20.10;;;4.78;;
41643;SDS011;44236;48.098;11.582;2023-02-28T09:16:28;4.97;;;2.88;;
41643;SDS011;44236;48.098;11.582;2023-02-28T09:18:55;6.60;;;2.80;;
41643;SDS011;44236;48.098;11.582;2023-02-28T09:21:22;6.43;;;2.70;;
41643;SDS011;44236;48.098;11.582;2023-02-28T09:23:48;8.77;;;2.85;;
41643;SDS011;44236;48.098;11.582;2023-02-28T09:26:16;7.57;;;3.35;;
41643;SDS011;44236;48.098;11.582;2023-02-28T09:28:43;5.32;;;2.83;;
41643;SDS011;44236;48.098;11.582;2023-02-28T09:31:13;6.22;;;3.08;;
41643;SDS011;44236;48.098;11.582;2023-02-28T09:33:40;9.10;;;3.25;;
41643;SDS011;44236;48.098;11.582;2023-02-28T09:36:06;7.07;;;3.15;;
41643;SDS011;44236;48.098;11.582;2023-02-28T09:38:32;5.50;;;3.00;;
41643;SDS011;44236;48.098;11.582;2023-02-28T09:40:59;6.25;;;2.85;;
41643;SDS011;44236;48.098;11.582;2023-02-28T09:43:35;5.75;;;2.75;;
41643;SDS011;44236;48.098;11.582;2023-02-28T09:48:41;5.57;;;3.20;;
41643;SDS011;44236;48.098;11.582;2023-02-28T09:53:53;6.30;;;2.88;;
41643;SDS011;44236;48.098;11.582;2023-02-28T09:56:20;4.40;;;2.67;;
41643;SDS011;44236;48.098;11.582;2023-02-28T09:59:00;5.18;;;2.83;;
41643;SDS011;44236;48.098;11.582;2023-02-28T10:06:54;6.03;;;2.90;;
41643;SDS011;44236;48.098;11.582;2023-02-28T10:09:27;6.00;;;2.65;;
41643;SDS011;44236;48.098;11.582;2023-02-28T10:11:59;4.97;;;2.80;;
41643;SDS011;44236;48.098;11.582;2023-02-28T10:14:29;4.72;;;2.85;;
41643;SDS011;44236;48.098;11.582;2023-02-28T10:16:59;3.88;;;2.25;;
41643;SDS011;44236;48.098;11.582;2023-02-28T10:19:30;4.43;;;2.42;;
41643;SDS011;44236;48.098;11.582;2023-02-28T10:22:14;8.02;;;2.40;;
41643;SDS011;44236;48.098;11.582;2023-02-28T10:24:46;9.98;;;2.97;;
41643;SDS011;44236;48.098;11.582;2023-02-28T10:27:23;5.65;;;3.00;;
41643;SDS011;44236;48.098;11.582;2023-02-28T10:29:57;6.10;;;2.55;;
41643;SDS011;44236;48.098;11.582;2023-02-28T10:32:32;5.35;;;2.67;;
41643;SDS011;44236;48.098;11.582;2023-02-28T10:37:31;6.17;;;2.77;;
41643;SDS011;44236;48.098;11.582;2023-02-28T10:39:57;4.28;;;2.55;;
41643;SDS011;44236;48.098;11.582;2023-02-28T10:42:27;6.32;;;2.60;;
41643;SDS011;44236;48.098;11.582;2023-02-28T10:45:10;6.65;;;2.90;;
41643;SDS011;44236;48.098;11.582;2023-02-28T10:47:57;5.50;;;2.72;;
41643;SDS011;44236;48.098;11.582;2023-02-28T10:50:29;4.80;;;2.58;;
41643;SDS011;44236;48.098;11.582;2023-02-28T10:56:00;4.88;;;2.60;;
41643;SDS011;44236;48.098;11.582;2023-02-28T11:01:40;3.35;;;1.95;;
41643;SDS011;44236;48.098;11.582;2023-02-28T11:07:20;5.18;;;2.65;;
41643;SDS011;44236;48.098;11.582;2023-02-28T11:09:51;4.22;;;2.40;;
41643;SDS011;44236;48.098;11.582;2023-02-28T11:12:23;5.35;;;2.70;;
41643;SDS011;44236;48.098;11.582;2023-02-28T11:15:04;5.68;;;2.78;;
41643;SDS011;44236;48.098;11.582;2023-02-28T11:17:43;4.65;;;2.20;;
41643;SDS011;44236;48.098;11.582;2023-02-28T11:20:10;4.53;;;2.45;;
41643;SDS011;44236;48.098;11.582;2023-02-28T11:22:45;4.40;;;2.38;;
41643;SDS011;44236;48.098;11.582;2023-02-28T11:25:21;5.30;;;2.80;;
41643;SDS011;44236;48.098;11.582;2023-02-28T11:27:53;4.47;;;2.50;;
41643;SDS011;44236;48.098;11.582;2023-02-28T11:30:28;4.38;;;2.63;;
41643;SDS011;44236;48.098;11.582;2023-02-28T11:32:54;5.32;;;2.60;;
41643;SDS011;44236;48.098;11.582;2023-02-28T11:35:24;4.75;;;2.53;;
41643;SDS011;44236;48.098;11.582;2023-02-28T11:37:51;6.60;;;3.13;;
41643;SDS011;44236;48.098;11.582;2023-02-28T11:40:29;5.47;;;2.80;;
41643;SDS011;44236;48.098;11.582;2023-02-28T11:43:18;5.18;;;2.75;;
41643;SDS011;44236;48.098;11.582;2023-02-28T11:51:51;4.85;;;2.55;;
41643;SDS011;44236;48.098;11.582;2023-02-28T11:57:32;6.40;;;2.65;;
41643;SDS011;44236;48.098;11.582;2023-02-28T12:06:17;5.13;;;2.60;;
41643;SDS011;44236;48.098;11.582;2023-02-28T12:19:18;4.78;;;3.05;;
41643;SDS011;44236;48.098;11.582;2023-02-28T12:22:11;3.90;;;2.58;;
41643;SDS011;44236;48.098;11.582;2023-02-28T12:27:43;3.65;;;2.40;;
41643;SDS011;44236;48.098;11.582;2023-02-28T12:33:04;5.18;;;2.38;;
41643;SDS011;44236;48.098;11.582;2023-02-28T12:35:42;4.47;;;2.35;;
41643;SDS011;44236;48.098;11.582;2023-02-28T12:38:48;5.07;;;2.47;;
41643;SDS011;44236;48.098;11.582;2023-02-28T12:46:42;4.70;;;2.42;;
41643;SDS011;44236;48.098;11.582;2023-02-28T12:51:57;4.57;;;2.42;;
41643;SDS011;44236;48.098;11.582;2023-02-28T13:00:13;7.18;;;3.25;;
41643;SDS011;44236;48.098;11.582;2023-02-28T13:08:01;4.85;;;3.17;;
41643;SDS011;44236;48.098;11.582;2023-02-28T13:10:48;3.92;;;2.40;;
41643;SDS011;44236;48.098;11.582;2023-02-28T13:13:28;4.80;;;2.95;;
41643;SDS011;44236;48.098;11.582;2023-02-28T13:18:34;4.30;;;2.42;;
41643;SDS011;44236;48.098;11.582;2023-02-28T13:21:02;3.90;;;2.30;;
41643;SDS011;44236;48.098;11.582;2023-02-28T13:23:39;6.93;;;3.10;;
41643;SDS011;44236;48.098;11.582;2023-02-28T13:26:05;4.78;;;2.90;;
41643;SDS011;44236;48.098;11.582;2023-02-28T13:39:53;4.47;;;2.40;;
41643;SDS011;44236;48.098;11.582;2023-02-28T13:42:37;6.18;;;2.78;;
41643;SDS011;44236;48.098;11.582;2023-02-28T13:48:04;4.70;;;2.63;;
41643;SDS011;44236;48.098;11.582;2023-02-28T13:50:41;3.55;;;2.35;;
41643;SDS011;44236;48.098;11.582;2023-02-28T13:58:32;6.70;;;2.50;;
41643;SDS011;44236;48.098;11.582;2023-02-28T14:07:17;3.90;;;2.33;;
41643;SDS011;44236;48.098;11.582;2023-02-28T14:09:46;3.58;;;2.20;;
41643;SDS011;44236;48.098;11.582;2023-02-28T14:20:52;5.00;;;2.63;;
41643;SDS011;44236;48.098;11.582;2023-02-28T14:34:50;5.15;;;2.72;;
41643;SDS011;44236;48.098;11.582;2023-02-28T14:37:24;4.80;;;2.67;;
41643;SDS011;44236;48.098;11.582;2023-02-28T14:39:56;4.25;;;2.80;;
41643;SDS011;44236;48.098;11.582;2023-02-28T14:44:57;3.80;;;2.17;;
41643;SDS011;44236;48.098;11.582;2023-02-28T14:47:25;4.97;;;2.75;;
41643;SDS011;44236;48.098;11.582;2023-02-28T14:49:55;6.35;;;2.60;;
41643;SDS011;44236;48.098;11.582;2023-02-28T14:52:29;5.10;;;2.75;;
41643;SDS011;44236;48.098;11.582;2023-02-28T14:54:58;4.50;;;2.47;;
41643;SDS011;44236;48.098;11.582;2023-02-28T14:57:26;4.22;;;2.47;;
41643;SDS011;44236;48.098;11.582;2023-02-28T15:00:04;5.20;;;2.88;;
41643;SDS011;44236;48.098;11.582;2023-02-28T15:02:38;5.82;;;2.70;;
41643;SDS011;44236;48.098;11.582;2023-02-28T15:07:43;6.28;;;2.50;;
41643;SDS011;44236;48.098;11.582;2023-02-28T15:12:49;4.03;;;2.25;;
41643;SDS011;44236;48.098;11.582;2023-02-28T15:18:07;4.65;;;2.20;;
41643;SDS011;44236;48.098;11.582;2023-02-28T15:20:40;4.47;;;2.40;;
41643;SDS011;44236;48.098;11.582;2023-02-28T15:23:08;4.72;;;2.47;;
41643;SDS011;44236;48.098;11.582;2023-02-28T15:25:35;4.50;;;2.53;;
41643;SDS011;44236;48.098;11.582;2023-02-28T15:28:01;5.97;;;2.33;;
41643;SDS011;44236;48.098;11.582;2023-02-28T15:30:28;3.92;;;2.45;;
41643;SDS011;44236;48.098;11.582;2023-02-28T15:33:04;4.32;;;2.15;;
41643;SDS011;44236;48.098;11.582;2023-02-28T15:35:45;5.15;;;2.70;;
41643;SDS011;44236;48.098;11.582;2023-02-28T15:40:40;4.82;;;2.40;;
41643;SDS011;44236;48.098;11.582;2023-02-28T15:45:47;5.00;;;2.30;;
41643;SDS011;44236;48.098;11.582;2023-02-28T15:48:26;4.20;;;2.10;;
41643;SDS011;44236;48.098;11.582;2023-02-28T15:53:37;6.53;;;2.63;;
41643;SDS011;44236;48.098;11.582;2023-02-28T15:56:22;6.13;;;2.65;;
41643;SDS011;44236;48.098;11.582;2023-02-28T15:58:55;6.05;;;2.17;;
41643;SDS011;44236;48.098;11.582;2023-02-28T16:01:38;3.85;;;2.03;;
41643;SDS011;44236;48.098;11.582;2023-02-28T16:04:05;12.57;;;6.63;;
41643;SDS011;44236;48.098;11.582;2023-02-28T16:06:41;17.95;;;10.02;;
41643;SDS011;44236;48.098;11.582;2023-02-28T16:09:12;16.75;;;8.43;;
41643;SDS011;44236;48.098;11.582;2023-02-28T16:11:43;17.08;;;8.30;;
41643;SDS011;44236;48.098;11.582;2023-02-28T16:14:21;12.68;;;7.05;;
41643;SDS011;44236;48.098;11.582;2023-02-28T16:16:51;11.48;;;6.78;;
41643;SDS011;44236;48.098;11.582;2023-02-28T16:19:19;11.57;;;5.75;;
41643;SDS011;44236;48.098;11.582;2023-02-28T16:21:47;10.77;;;5.15;;
41643;SDS011;44236;48.098;11.582;2023-02-28T16:24:13;10.32;;;4.60;;
41643;SDS011;44236;48.098;11.582;2023-02-28T16:26:39;10.98;;;4.90;;
41643;SDS011;44236;48.098;11.582;2023-02-28T16:29:06;9.30;;;4.90;;
41643;SDS011;44236;48.098;11.582;2023-02-28T16:31:37;9.57;;;4.50;;
41643;SDS011;44236;48.098;11.582;2023-02-28T16:34:04;7.35;;;4.28;;
41643;SDS011;44236;48.098;11.582;2023-02-28T16:36:30;11.43;;;6.13;;
41643;SDS011;44236;48.098;11.582;2023-02-28T16:38:56;7.60;;;4.03;;
41643;SDS011;44236;48.098;11.582;2023-02-28T16:41:22;6.82;;;3.65;;
41643;SDS011;44236;48.098;11.582;2023-02-28T16:43:51;8.05;;;3.83;;
41643;SDS011;44236;48.098;11.582;2023-02-28T16:46:19;7.03;;;3.13;;
41643;SDS011;44236;48.098;11.582;2023-02-28T16:48:46;9.05;;;4.20;;
41643;SDS011;44236;48.098;11.582;2023-02-28T16:51:16;7.78;;;3.40;;
41643;SDS011;44236;48.098;11.582;2023-02-28T16:53:42;5.85;;;3.60;;
41643;SDS011;44236;48.098;11.582;2023-02-28T16:56:43;7.35;;;3.17;;
41643;SDS011;44236;48.098;11.582;2023-02-28T16:59:02;6.78;;;2.90;;
41643;SDS011;44236;48.098;11.582;2023-02-28T17:01:28;6.30;;;2.83;;
41643;SDS011;44236;48.098;11.582;2023-02-28T17:03:53;7.13;;;3.83;;
41643;SDS011;44236;48.098;11.582;2023-02-28T17:06:23;5.90;;;2.95;;
41643;SDS011;44236;48.098;11.582;2023-02-28T17:08:54;6.25;;;2.38;;
41643;SDS011;44236;48.098;11.582;2023-02-28T17:11:20;5.35;;;2.90;;
41643;SDS011;44236;48.098;11.582;2023-02-28T17:13:46;5.38;;;3.03;;
41643;SDS011;44236;48.098;11.582;2023-02-28T17:18:53;6.13;;;3.08;;
41643;SDS011;44236;48.098;11.582;2023-02-28T17:21:21;6.38;;;3.28;;
41643;SDS011;44236;48.098;11.582;2023-02-28T17:23:47;3.60;;;2.13;;
41643;SDS011;44236;48.098;11.582;2023-02-28T17:26:17;6.05;;;3.03;;
41643;SDS011;44236;48.098;11.582;2023-02-28T17:28:49;6.00;;;3.15;;
41643;SDS011;44236;48.098;11.582;2023-02-28T17:31:16;5.38;;;2.47;;
41643;SDS011;44236;48.098;11.582;2023-02-28T17:33:42;5.18;;;2.50;;
41643;SDS011;44236;48.098;11.582;2023-02-28T17:36:15;6.40;;;2.38;;
41643;SDS011;44236;48.098;11.582;2023-02-28T17:38:48;3.63;;;2.15;;
41643;SDS011;44236;48.098;11.582;2023-02-28T17:41:14;5.25;;;2.92;;
41643;SDS011;44236;48.098;11.582;2023-02-28T17:43:40;7.22;;;2.33;;